sensor_id;sensor_type;location;lat;lon;timestamp;P1;durP1;ratioP1;P2;durP2;ratioP2
30307;SDS011;17114;52.314;8.910;2023-11-19T00:00:08;2.50;;;1.98;;
30307;SDS011;17114;52.314;8.910;2023-11-19T00:02:39;3.95;;;1.85;;
30307;SDS011;17114;52.314;8.910;2023-11-19T00:05:07;3.20;;;2.33;;
30307;SDS011;17114;52.314;8.910;2023-11-19T00:07:35;4.88;;;2.20;;
30307;SDS011;17114;52.314;8.910;2023-11-19T00:10:03;3.40;;;2.00;;
30307;SDS011;17114;52.314;8.910;2023-11-19T00:12:33;3.47;;;2.30;;
30307;SDS011;17114;52.314;8.910;2023-11-19T00:15:00;2.53;;;2.17;;
30307;SDS011;17114;52.314;8.910;2023-11-19T00:17:27;2.65;;;2.42;;
30307;SDS011;17114;52.314;8.910;2023-11-19T00:19:54;2.47;;;2.28;;
30307;SDS011;17114;52.314;8.910;2023-11-19T00:22:21;6.30;;;3.00;;
30307;SDS011;17114;52.314;8.910;2023-11-19T00:24:48;3.08;;;2.35;;
30307;SDS011;17114;52.314;8.910;2023-11-19T00:27:16;4.50;;;3.13;;
30307;SDS011;17114;52.314;8.910;2023-11-19T00:29:44;5.32;;;3.00;;
30307;SDS011;17114;52.314;8.910;2023-11-19T00:32:12;3.05;;;2.75;;
30307;SDS011;17114;52.314;8.910;2023-11-19T00:34:39;3.55;;;3.13;;
30307;SDS011;17114;52.314;8.910;2023-11-19T00:37:06;3.38;;;2.83;;
30307;SDS011;17114;52.314;8.910;2023-11-19T00:39:33;4.00;;;3.40;;
30307;SDS011;17114;52.314;8.910;2023-11-19T00:42:00;5.20;;;3.33;;
30307;SDS011;17114;52.314;8.910;2023-11-19T00:44:26;3.83;;;3.28;;
30307;SDS011;17114;52.314;8.910;2023-11-19T00:46:53;3.97;;;3.60;;
30307;SDS011;17114;52.314;8.910;2023-11-19T00:49:20;4.78;;;3.30;;
30307;SDS011;17114;52.314;8.910;2023-11-19T00:51:47;3.80;;;3.35;;
30307;SDS011;17114;52.314;8.910;2023-11-19T00:54:15;5.20;;;3.10;;
30307;SDS011;17114;52.314;8.910;2023-11-19T00:56:42;3.90;;;3.15;;
30307;SDS011;17114;52.314;8.910;2023-11-19T00:59:09;3.17;;;2.78;;
30307;SDS011;17114;52.314;8.910;2023-11-19T01:01:36;4.03;;;3.10;;
30307;SDS011;17114;52.314;8.910;2023-11-19T01:04:02;3.10;;;2.80;;
30307;SDS011;17114;52.314;8.910;2023-11-19T01:06:30;2.40;;;2.20;;
30307;SDS011;17114;52.314;8.910;2023-11-19T01:08:58;4.35;;;2.50;;
30307;SDS011;17114;52.314;8.910;2023-11-19T01:11:25;3.53;;;2.63;;
30307;SDS011;17114;52.314;8.910;2023-11-19T01:13:52;3.63;;;2.20;;
30307;SDS011;17114;52.314;8.910;2023-11-19T01:16:19;2.40;;;2.00;;
30307;SDS011;17114;52.314;8.910;2023-11-19T01:18:47;2.20;;;1.90;;
30307;SDS011;17114;52.314;8.910;2023-11-19T01:21:15;6.45;;;2.42;;
30307;SDS011;17114;52.314;8.910;2023-11-19T01:23:42;2.05;;;1.85;;
30307;SDS011;17114;52.314;8.910;2023-11-19T01:26:12;1.80;;;1.67;;
30307;SDS011;17114;52.314;8.910;2023-11-19T01:28:39;2.55;;;2.03;;
30307;SDS011;17114;52.314;8.910;2023-11-19T01:31:17;4.22;;;2.00;;
30307;SDS011;17114;52.314;8.910;2023-11-19T01:33:44;2.63;;;2.00;;
30307;SDS011;17114;52.314;8.910;2023-11-19T01:36:13;2.92;;;2.55;;
30307;SDS011;17114;52.314;8.910;2023-11-19T01:38:40;2.50;;;2.30;;
30307;SDS011;17114;52.314;8.910;2023-11-19T01:41:07;2.20;;;2.00;;
30307;SDS011;17114;52.314;8.910;2023-11-19T01:43:35;2.72;;;1.83;;
30307;SDS011;17114;52.314;8.910;2023-11-19T01:46:04;2.50;;;1.92;;
30307;SDS011;17114;52.314;8.910;2023-11-19T01:48:32;1.88;;;1.63;;
30307;SDS011;17114;52.314;8.910;2023-11-19T01:51:02;1.65;;;1.50;;
30307;SDS011;17114;52.314;8.910;2023-11-19T01:53:30;2.20;;;1.83;;
30307;SDS011;17114;52.314;8.910;2023-11-19T01:55:58;2.17;;;1.95;;
30307;SDS011;17114;52.314;8.910;2023-11-19T01:58:25;4.43;;;2.10;;
30307;SDS011;17114;52.314;8.910;2023-11-19T02:00:52;2.38;;;2.17;;
30307;SDS011;17114;52.314;8.910;2023-11-19T02:03:20;2.90;;;2.60;;
30307;SDS011;17114;52.314;8.910;2023-11-19T02:05:48;3.10;;;2.70;;
30307;SDS011;17114;52.314;8.910;2023-11-19T02:08:17;4.93;;;2.90;;
30307;SDS011;17114;52.314;8.910;2023-11-19T02:10:44;5.18;;;4.00;;
30307;SDS011;17114;52.314;8.910;2023-11-19T02:13:10;5.10;;;3.95;;
30307;SDS011;17114;52.314;8.910;2023-11-19T02:15:40;6.57;;;4.40;;
30307;SDS011;17114;52.314;8.910;2023-11-19T02:18:26;5.63;;;4.57;;
30307;SDS011;17114;52.314;8.910;2023-11-19T02:20:54;6.88;;;6.05;;
30307;SDS011;17114;52.314;8.910;2023-11-19T02:23:28;7.35;;;6.10;;
30307;SDS011;17114;52.314;8.910;2023-11-19T02:28:59;7.78;;;6.75;;
30307;SDS011;17114;52.314;8.910;2023-11-19T02:31:26;9.13;;;7.55;;
30307;SDS011;17114;52.314;8.910;2023-11-19T02:33:53;13.75;;;8.32;;
30307;SDS011;17114;52.314;8.910;2023-11-19T02:36:21;13.30;;;8.05;;
30307;SDS011;17114;52.314;8.910;2023-11-19T02:38:48;10.27;;;8.40;;
30307;SDS011;17114;52.314;8.910;2023-11-19T02:41:14;12.25;;;8.82;;
30307;SDS011;17114;52.314;8.910;2023-11-19T02:43:41;10.95;;;8.88;;
30307;SDS011;17114;52.314;8.910;2023-11-19T02:46:08;12.32;;;8.55;;
30307;SDS011;17114;52.314;8.910;2023-11-19T02:48:38;11.95;;;9.18;;
30307;SDS011;17114;52.314;8.910;2023-11-19T02:51:05;10.48;;;8.90;;
30307;SDS011;17114;52.314;8.910;2023-11-19T02:53:36;10.63;;;8.82;;
30307;SDS011;17114;52.314;8.910;2023-11-19T02:56:06;11.35;;;9.52;;
30307;SDS011;17114;52.314;8.910;2023-11-19T02:58:52;10.48;;;8.80;;
30307;SDS011;17114;52.314;8.910;2023-11-19T03:01:22;12.23;;;9.88;;
30307;SDS011;17114;52.314;8.910;2023-11-19T03:03:56;12.43;;;10.05;;
30307;SDS011;17114;52.314;8.910;2023-11-19T03:06:24;12.55;;;9.50;;
30307;SDS011;17114;52.314;8.910;2023-11-19T03:08:51;12.38;;;9.77;;
30307;SDS011;17114;52.314;8.910;2023-11-19T03:11:18;14.32;;;10.45;;
30307;SDS011;17114;52.314;8.910;2023-11-19T03:13:45;15.45;;;11.13;;
30307;SDS011;17114;52.314;8.910;2023-11-19T03:16:13;17.42;;;11.73;;
30307;SDS011;17114;52.314;8.910;2023-11-19T03:18:40;17.48;;;11.60;;
30307;SDS011;17114;52.314;8.910;2023-11-19T03:21:07;18.85;;;12.75;;
30307;SDS011;17114;52.314;8.910;2023-11-19T03:23:34;16.35;;;12.73;;
30307;SDS011;17114;52.314;8.910;2023-11-19T03:26:02;16.67;;;13.00;;
30307;SDS011;17114;52.314;8.910;2023-11-19T03:28:31;19.20;;;14.85;;
30307;SDS011;17114;52.314;8.910;2023-11-19T03:30:58;22.77;;;14.63;;
30307;SDS011;17114;52.314;8.910;2023-11-19T03:33:25;18.40;;;14.40;;
30307;SDS011;17114;52.314;8.910;2023-11-19T03:35:56;20.67;;;15.35;;
30307;SDS011;17114;52.314;8.910;2023-11-19T03:38:23;19.83;;;15.38;;
30307;SDS011;17114;52.314;8.910;2023-11-19T03:40:51;23.05;;;16.13;;
30307;SDS011;17114;52.314;8.910;2023-11-19T03:43:18;21.38;;;14.73;;
30307;SDS011;17114;52.314;8.910;2023-11-19T03:45:45;20.98;;;15.98;;
30307;SDS011;17114;52.314;8.910;2023-11-19T03:48:13;26.80;;;15.23;;
30307;SDS011;17114;52.314;8.910;2023-11-19T03:50:42;22.80;;;15.52;;
30307;SDS011;17114;52.314;8.910;2023-11-19T03:53:10;23.45;;;17.35;;
30307;SDS011;17114;52.314;8.910;2023-11-19T03:55:38;27.45;;;17.95;;
30307;SDS011;17114;52.314;8.910;2023-11-19T03:58:04;24.35;;;17.13;;
30307;SDS011;17114;52.314;8.910;2023-11-19T04:00:32;29.85;;;18.85;;
30307;SDS011;17114;52.314;8.910;2023-11-19T04:02:59;32.28;;;20.48;;
30307;SDS011;17114;52.314;8.910;2023-11-19T04:05:26;30.52;;;21.52;;
30307;SDS011;17114;52.314;8.910;2023-11-19T04:07:52;35.00;;;21.88;;
30307;SDS011;17114;52.314;8.910;2023-11-19T04:10:19;32.35;;;21.65;;
30307;SDS011;17114;52.314;8.910;2023-11-19T04:12:46;34.08;;;21.30;;
30307;SDS011;17114;52.314;8.910;2023-11-19T04:15:13;33.50;;;23.17;;
30307;SDS011;17114;52.314;8.910;2023-11-19T04:17:40;34.60;;;22.80;;
30307;SDS011;17114;52.314;8.910;2023-11-19T04:20:07;35.00;;;23.13;;
30307;SDS011;17114;52.314;8.910;2023-11-19T04:22:38;37.72;;;23.15;;
30307;SDS011;17114;52.314;8.910;2023-11-19T04:25:05;35.63;;;23.13;;
30307;SDS011;17114;52.314;8.910;2023-11-19T04:27:33;34.78;;;24.02;;
30307;SDS011;17114;52.314;8.910;2023-11-19T04:29:59;43.85;;;24.13;;
30307;SDS011;17114;52.314;8.910;2023-11-19T04:32:28;38.50;;;23.45;;
30307;SDS011;17114;52.314;8.910;2023-11-19T04:34:55;39.00;;;23.63;;
30307;SDS011;17114;52.314;8.910;2023-11-19T04:37:22;41.47;;;24.83;;
30307;SDS011;17114;52.314;8.910;2023-11-19T04:39:49;39.17;;;23.65;;
30307;SDS011;17114;52.314;8.910;2023-11-19T04:42:17;38.33;;;23.58;;
30307;SDS011;17114;52.314;8.910;2023-11-19T04:44:44;35.40;;;22.02;;
30307;SDS011;17114;52.314;8.910;2023-11-19T04:47:11;40.05;;;23.17;;
30307;SDS011;17114;52.314;8.910;2023-11-19T04:49:41;36.28;;;22.05;;
30307;SDS011;17114;52.314;8.910;2023-11-19T04:52:11;32.80;;;22.83;;
30307;SDS011;17114;52.314;8.910;2023-11-19T04:54:42;40.05;;;21.60;;
30307;SDS011;17114;52.314;8.910;2023-11-19T04:57:12;35.60;;;20.77;;
30307;SDS011;17114;52.314;8.910;2023-11-19T04:59:39;32.33;;;20.92;;
30307;SDS011;17114;52.314;8.910;2023-11-19T05:02:06;34.55;;;20.77;;
30307;SDS011;17114;52.314;8.910;2023-11-19T05:04:33;38.55;;;20.77;;
30307;SDS011;17114;52.314;8.910;2023-11-19T05:07:00;30.13;;;20.95;;
30307;SDS011;17114;52.314;8.910;2023-11-19T05:09:27;33.63;;;20.77;;
30307;SDS011;17114;52.314;8.910;2023-11-19T05:11:53;32.88;;;19.08;;
30307;SDS011;17114;52.314;8.910;2023-11-19T05:14:20;34.60;;;19.90;;
30307;SDS011;17114;52.314;8.910;2023-11-19T05:16:48;31.10;;;17.55;;
30307;SDS011;17114;52.314;8.910;2023-11-19T05:19:15;30.60;;;18.17;;
30307;SDS011;17114;52.314;8.910;2023-11-19T05:21:42;31.20;;;16.95;;
30307;SDS011;17114;52.314;8.910;2023-11-19T05:24:10;27.90;;;15.60;;
30307;SDS011;17114;52.314;8.910;2023-11-19T05:26:38;26.65;;;16.45;;
30307;SDS011;17114;52.314;8.910;2023-11-19T05:29:05;34.47;;;16.73;;
30307;SDS011;17114;52.314;8.910;2023-11-19T05:31:32;29.17;;;15.27;;
30307;SDS011;17114;52.314;8.910;2023-11-19T05:34:02;37.00;;;16.73;;
30307;SDS011;17114;52.314;8.910;2023-11-19T05:36:30;29.92;;;15.13;;
30307;SDS011;17114;52.314;8.910;2023-11-19T05:38:57;26.90;;;14.55;;
30307;SDS011;17114;52.314;8.910;2023-11-19T05:41:24;27.35;;;14.35;;
30307;SDS011;17114;52.314;8.910;2023-11-19T05:43:50;29.00;;;13.20;;
30307;SDS011;17114;52.314;8.910;2023-11-19T05:46:18;24.70;;;13.40;;
30307;SDS011;17114;52.314;8.910;2023-11-19T05:48:46;26.40;;;13.80;;
30307;SDS011;17114;52.314;8.910;2023-11-19T05:51:14;28.30;;;13.50;;
30307;SDS011;17114;52.314;8.910;2023-11-19T05:53:44;31.75;;;12.25;;
30307;SDS011;17114;52.314;8.910;2023-11-19T05:56:16;28.92;;;11.90;;
30307;SDS011;17114;52.314;8.910;2023-11-19T05:58:47;28.42;;;11.50;;
30307;SDS011;17114;52.314;8.910;2023-11-19T06:01:15;31.65;;;10.65;;
30307;SDS011;17114;52.314;8.910;2023-11-19T06:03:43;31.40;;;10.80;;
30307;SDS011;17114;52.314;8.910;2023-11-19T06:06:13;35.38;;;11.45;;
30307;SDS011;17114;52.314;8.910;2023-11-19T06:08:40;31.02;;;11.80;;
30307;SDS011;17114;52.314;8.910;2023-11-19T06:11:09;35.67;;;11.35;;
30307;SDS011;17114;52.314;8.910;2023-11-19T06:13:40;29.52;;;10.15;;
30307;SDS011;17114;52.314;8.910;2023-11-19T06:16:09;25.00;;;9.75;;
30307;SDS011;17114;52.314;8.910;2023-11-19T06:18:36;27.63;;;10.32;;
30307;SDS011;17114;52.314;8.910;2023-11-19T06:21:03;30.70;;;10.02;;
30307;SDS011;17114;52.314;8.910;2023-11-19T06:23:30;27.02;;;9.25;;
30307;SDS011;17114;52.314;8.910;2023-11-19T06:25:57;29.05;;;7.90;;
30307;SDS011;17114;52.314;8.910;2023-11-19T06:28:25;33.08;;;10.00;;
30307;SDS011;17114;52.314;8.910;2023-11-19T06:30:51;31.85;;;6.97;;
30307;SDS011;17114;52.314;8.910;2023-11-19T06:33:18;34.63;;;7.75;;
30307;SDS011;17114;52.314;8.910;2023-11-19T06:35:45;36.15;;;8.27;;
30307;SDS011;17114;52.314;8.910;2023-11-19T06:38:12;30.63;;;7.32;;
30307;SDS011;17114;52.314;8.910;2023-11-19T06:40:40;29.45;;;6.05;;
30307;SDS011;17114;52.314;8.910;2023-11-19T06:43:07;26.17;;;5.82;;
30307;SDS011;17114;52.314;8.910;2023-11-19T06:45:37;32.60;;;5.47;;
30307;SDS011;17114;52.314;8.910;2023-11-19T06:48:04;32.17;;;5.85;;
30307;SDS011;17114;52.314;8.910;2023-11-19T06:50:31;32.10;;;6.13;;
30307;SDS011;17114;52.314;8.910;2023-11-19T06:52:58;28.73;;;5.70;;
30307;SDS011;17114;52.314;8.910;2023-11-19T06:55:28;22.10;;;4.60;;
30307;SDS011;17114;52.314;8.910;2023-11-19T06:57:55;38.78;;;6.35;;
30307;SDS011;17114;52.314;8.910;2023-11-19T07:00:22;38.75;;;5.43;;
30307;SDS011;17114;52.314;8.910;2023-11-19T07:02:49;28.02;;;5.47;;
30307;SDS011;17114;52.314;8.910;2023-11-19T07:05:17;41.03;;;6.57;;
30307;SDS011;17114;52.314;8.910;2023-11-19T07:07:44;30.85;;;6.00;;
30307;SDS011;17114;52.314;8.910;2023-11-19T07:10:12;28.00;;;6.63;;
30307;SDS011;17114;52.314;8.910;2023-11-19T07:12:39;29.20;;;5.70;;
30307;SDS011;17114;52.314;8.910;2023-11-19T07:15:06;40.80;;;6.93;;
30307;SDS011;17114;52.314;8.910;2023-11-19T07:17:33;34.08;;;5.97;;
30307;SDS011;17114;52.314;8.910;2023-11-19T07:20:01;29.75;;;5.75;;
30307;SDS011;17114;52.314;8.910;2023-11-19T07:22:28;27.63;;;5.97;;
30307;SDS011;17114;52.314;8.910;2023-11-19T07:24:56;26.75;;;5.57;;
30307;SDS011;17114;52.314;8.910;2023-11-19T07:27:23;38.42;;;6.38;;
30307;SDS011;17114;52.314;8.910;2023-11-19T07:29:50;34.20;;;5.10;;
30307;SDS011;17114;52.314;8.910;2023-11-19T07:32:17;38.38;;;6.38;;
30307;SDS011;17114;52.314;8.910;2023-11-19T07:34:44;37.63;;;6.43;;
30307;SDS011;17114;52.314;8.910;2023-11-19T07:37:11;32.88;;;5.53;;
30307;SDS011;17114;52.314;8.910;2023-11-19T07:39:38;33.38;;;6.32;;
30307;SDS011;17114;52.314;8.910;2023-11-19T07:42:07;36.83;;;6.45;;
30307;SDS011;17114;52.314;8.910;2023-11-19T07:44:35;40.75;;;7.40;;
30307;SDS011;17114;52.314;8.910;2023-11-19T07:47:03;37.28;;;5.75;;
30307;SDS011;17114;52.314;8.910;2023-11-19T07:49:30;35.92;;;6.40;;
30307;SDS011;17114;52.314;8.910;2023-11-19T07:51:57;44.40;;;6.95;;
30307;SDS011;17114;52.314;8.910;2023-11-19T07:54:24;31.40;;;5.72;;
30307;SDS011;17114;52.314;8.910;2023-11-19T07:56:51;39.08;;;6.32;;
30307;SDS011;17114;52.314;8.910;2023-11-19T07:59:18;23.58;;;5.57;;
30307;SDS011;17114;52.314;8.910;2023-11-19T08:01:45;38.33;;;6.68;;
30307;SDS011;17114;52.314;8.910;2023-11-19T08:04:12;37.47;;;6.18;;
30307;SDS011;17114;52.314;8.910;2023-11-19T08:06:39;38.13;;;6.60;;
30307;SDS011;17114;52.314;8.910;2023-11-19T08:09:06;31.85;;;5.05;;
30307;SDS011;17114;52.314;8.910;2023-11-19T08:11:33;30.23;;;5.72;;
30307;SDS011;17114;52.314;8.910;2023-11-19T08:14:00;32.25;;;5.88;;
30307;SDS011;17114;52.314;8.910;2023-11-19T08:16:27;42.53;;;6.22;;
30307;SDS011;17114;52.314;8.910;2023-11-19T08:18:54;42.58;;;7.88;;
30307;SDS011;17114;52.314;8.910;2023-11-19T08:21:20;43.50;;;6.82;;
30307;SDS011;17114;52.314;8.910;2023-11-19T08:23:49;43.00;;;6.63;;
30307;SDS011;17114;52.314;8.910;2023-11-19T08:26:15;34.47;;;5.97;;
30307;SDS011;17114;52.314;8.910;2023-11-19T08:28:47;33.40;;;5.72;;
30307;SDS011;17114;52.314;8.910;2023-11-19T08:31:14;39.40;;;6.43;;
30307;SDS011;17114;52.314;8.910;2023-11-19T08:33:41;40.85;;;6.55;;
30307;SDS011;17114;52.314;8.910;2023-11-19T08:36:08;32.90;;;7.15;;
30307;SDS011;17114;52.314;8.910;2023-11-19T08:38:35;35.42;;;6.20;;
30307;SDS011;17114;52.314;8.910;2023-11-19T08:41:02;40.47;;;5.88;;
30307;SDS011;17114;52.314;8.910;2023-11-19T08:43:29;49.00;;;8.07;;
30307;SDS011;17114;52.314;8.910;2023-11-19T08:45:57;41.90;;;7.20;;
30307;SDS011;17114;52.314;8.910;2023-11-19T08:48:24;47.08;;;6.47;;
30307;SDS011;17114;52.314;8.910;2023-11-19T08:50:52;34.47;;;6.75;;
30307;SDS011;17114;52.314;8.910;2023-11-19T08:53:19;40.45;;;7.47;;
30307;SDS011;17114;52.314;8.910;2023-11-19T08:55:47;40.67;;;7.85;;
30307;SDS011;17114;52.314;8.910;2023-11-19T08:58:13;37.75;;;7.35;;
30307;SDS011;17114;52.314;8.910;2023-11-19T09:00:40;39.10;;;7.22;;
30307;SDS011;17114;52.314;8.910;2023-11-19T09:03:07;40.28;;;7.35;;
30307;SDS011;17114;52.314;8.910;2023-11-19T09:05:35;48.90;;;7.25;;
30307;SDS011;17114;52.314;8.910;2023-11-19T09:08:03;47.22;;;6.82;;
30307;SDS011;17114;52.314;8.910;2023-11-19T09:10:31;40.45;;;6.18;;
30307;SDS011;17114;52.314;8.910;2023-11-19T09:12:58;46.97;;;7.22;;
30307;SDS011;17114;52.314;8.910;2023-11-19T09:15:25;34.28;;;6.28;;
30307;SDS011;17114;52.314;8.910;2023-11-19T09:17:51;41.35;;;7.70;;
30307;SDS011;17114;52.314;8.910;2023-11-19T09:20:18;44.13;;;7.30;;
30307;SDS011;17114;52.314;8.910;2023-11-19T09:22:45;42.10;;;7.38;;
30307;SDS011;17114;52.314;8.910;2023-11-19T09:25:13;39.90;;;6.47;;
30307;SDS011;17114;52.314;8.910;2023-11-19T09:27:43;38.40;;;6.95;;
30307;SDS011;17114;52.314;8.910;2023-11-19T09:30:11;38.05;;;6.57;;
30307;SDS011;17114;52.314;8.910;2023-11-19T09:32:39;43.00;;;6.85;;
30307;SDS011;17114;52.314;8.910;2023-11-19T09:35:07;33.92;;;6.22;;
30307;SDS011;17114;52.314;8.910;2023-11-19T09:37:34;40.05;;;6.85;;
30307;SDS011;17114;52.314;8.910;2023-11-19T09:40:01;44.25;;;7.03;;
30307;SDS011;17114;52.314;8.910;2023-11-19T09:42:28;42.72;;;7.45;;
30307;SDS011;17114;52.314;8.910;2023-11-19T09:44:57;37.70;;;6.32;;
30307;SDS011;17114;52.314;8.910;2023-11-19T09:47:25;35.75;;;6.03;;
30307;SDS011;17114;52.314;8.910;2023-11-19T09:49:54;42.50;;;6.38;;
30307;SDS011;17114;52.314;8.910;2023-11-19T09:52:24;37.08;;;6.75;;
30307;SDS011;17114;52.314;8.910;2023-11-19T09:54:51;39.72;;;6.22;;
30307;SDS011;17114;52.314;8.910;2023-11-19T09:57:18;38.00;;;7.40;;
30307;SDS011;17114;52.314;8.910;2023-11-19T09:59:45;32.35;;;6.40;;
30307;SDS011;17114;52.314;8.910;2023-11-19T10:02:13;37.15;;;7.13;;
30307;SDS011;17114;52.314;8.910;2023-11-19T10:04:41;36.67;;;6.18;;
30307;SDS011;17114;52.314;8.910;2023-11-19T10:07:10;31.60;;;6.68;;
30307;SDS011;17114;52.314;8.910;2023-11-19T10:09:38;45.30;;;7.25;;
30307;SDS011;17114;52.314;8.910;2023-11-19T10:12:05;46.13;;;8.00;;
30307;SDS011;17114;52.314;8.910;2023-11-19T10:14:32;38.75;;;6.70;;
30307;SDS011;17114;52.314;8.910;2023-11-19T10:17:03;48.17;;;7.28;;
30307;SDS011;17114;52.314;8.910;2023-11-19T10:19:33;41.00;;;6.65;;
30307;SDS011;17114;52.314;8.910;2023-11-19T10:22:06;38.50;;;7.28;;
30307;SDS011;17114;52.314;8.910;2023-11-19T10:24:42;43.53;;;8.90;;
30307;SDS011;17114;52.314;8.910;2023-11-19T10:27:14;41.20;;;7.10;;
30307;SDS011;17114;52.314;8.910;2023-11-19T10:29:45;41.40;;;7.18;;
30307;SDS011;17114;52.314;8.910;2023-11-19T10:32:13;37.90;;;7.13;;
30307;SDS011;17114;52.314;8.910;2023-11-19T10:34:52;36.05;;;6.38;;
30307;SDS011;17114;52.314;8.910;2023-11-19T10:37:31;41.67;;;7.10;;
30307;SDS011;17114;52.314;8.910;2023-11-19T10:40:02;35.72;;;6.82;;
30307;SDS011;17114;52.314;8.910;2023-11-19T10:42:31;46.88;;;7.63;;
30307;SDS011;17114;52.314;8.910;2023-11-19T10:44:58;35.13;;;5.90;;
30307;SDS011;17114;52.314;8.910;2023-11-19T10:47:25;41.80;;;7.43;;
30307;SDS011;17114;52.314;8.910;2023-11-19T10:49:55;32.03;;;5.57;;
30307;SDS011;17114;52.314;8.910;2023-11-19T10:52:22;35.42;;;6.55;;
30307;SDS011;17114;52.314;8.910;2023-11-19T10:54:51;38.97;;;6.53;;
30307;SDS011;17114;52.314;8.910;2023-11-19T10:57:21;40.70;;;6.88;;
30307;SDS011;17114;52.314;8.910;2023-11-19T10:59:53;36.35;;;6.25;;
30307;SDS011;17114;52.314;8.910;2023-11-19T11:02:27;35.95;;;6.32;;
30307;SDS011;17114;52.314;8.910;2023-11-19T11:04:56;37.50;;;6.05;;
30307;SDS011;17114;52.314;8.910;2023-11-19T11:07:23;31.00;;;6.35;;
30307;SDS011;17114;52.314;8.910;2023-11-19T11:10:04;48.50;;;7.53;;
30307;SDS011;17114;52.314;8.910;2023-11-19T11:12:38;40.60;;;7.13;;
30307;SDS011;17114;52.314;8.910;2023-11-19T11:15:08;40.45;;;7.57;;
30307;SDS011;17114;52.314;8.910;2023-11-19T11:17:42;45.70;;;8.25;;
30307;SDS011;17114;52.314;8.910;2023-11-19T11:20:11;33.45;;;6.35;;
30307;SDS011;17114;52.314;8.910;2023-11-19T11:22:43;43.25;;;7.47;;
30307;SDS011;17114;52.314;8.910;2023-11-19T11:28:21;39.80;;;6.65;;
30307;SDS011;17114;52.314;8.910;2023-11-19T11:36:30;37.08;;;7.18;;
30307;SDS011;17114;52.314;8.910;2023-11-19T11:39:00;40.38;;;6.70;;
30307;SDS011;17114;52.314;8.910;2023-11-19T11:41:34;41.28;;;7.07;;
30307;SDS011;17114;52.314;8.910;2023-11-19T11:44:01;38.05;;;7.72;;
30307;SDS011;17114;52.314;8.910;2023-11-19T11:49:07;49.42;;;8.88;;
30307;SDS011;17114;52.314;8.910;2023-11-19T11:59:45;49.33;;;8.77;;
30307;SDS011;17114;52.314;8.910;2023-11-19T12:02:17;44.88;;;8.73;;
30307;SDS011;17114;52.314;8.910;2023-11-19T12:04:49;49.55;;;8.23;;
30307;SDS011;17114;52.314;8.910;2023-11-19T12:10:09;42.83;;;6.88;;
30307;SDS011;17114;52.314;8.910;2023-11-19T12:12:39;43.22;;;7.28;;
30307;SDS011;17114;52.314;8.910;2023-11-19T12:15:08;35.35;;;7.20;;
30307;SDS011;17114;52.314;8.910;2023-11-19T12:17:37;37.75;;;7.25;;
30307;SDS011;17114;52.314;8.910;2023-11-19T12:20:06;43.95;;;8.60;;
30307;SDS011;17114;52.314;8.910;2023-11-19T12:22:37;39.45;;;6.75;;
30307;SDS011;17114;52.314;8.910;2023-11-19T12:25:05;40.97;;;6.32;;
30307;SDS011;17114;52.314;8.910;2023-11-19T12:27:35;38.55;;;7.95;;
30307;SDS011;17114;52.314;8.910;2023-11-19T12:30:03;46.22;;;7.93;;
30307;SDS011;17114;52.314;8.910;2023-11-19T12:32:40;41.45;;;8.40;;
30307;SDS011;17114;52.314;8.910;2023-11-19T12:35:08;41.25;;;7.88;;
30307;SDS011;17114;52.314;8.910;2023-11-19T12:37:42;40.38;;;7.25;;
30307;SDS011;17114;52.314;8.910;2023-11-19T12:40:14;38.45;;;7.05;;
30307;SDS011;17114;52.314;8.910;2023-11-19T12:42:44;35.90;;;7.22;;
30307;SDS011;17114;52.314;8.910;2023-11-19T12:45:12;41.08;;;8.85;;
30307;SDS011;17114;52.314;8.910;2023-11-19T12:47:39;39.45;;;7.55;;
30307;SDS011;17114;52.314;8.910;2023-11-19T12:50:07;42.55;;;7.90;;
30307;SDS011;17114;52.314;8.910;2023-11-19T12:52:35;36.92;;;7.07;;
30307;SDS011;17114;52.314;8.910;2023-11-19T12:55:04;39.33;;;7.30;;
30307;SDS011;17114;52.314;8.910;2023-11-19T12:57:41;39.45;;;7.90;;
30307;SDS011;17114;52.314;8.910;2023-11-19T13:00:23;43.22;;;8.85;;
30307;SDS011;17114;52.314;8.910;2023-11-19T13:02:52;47.50;;;7.70;;
30307;SDS011;17114;52.314;8.910;2023-11-19T13:05:21;44.58;;;8.68;;
30307;SDS011;17114;52.314;8.910;2023-11-19T13:08:04;40.33;;;7.13;;
30307;SDS011;17114;52.314;8.910;2023-11-19T13:10:33;49.30;;;9.43;;
30307;SDS011;17114;52.314;8.910;2023-11-19T13:13:17;40.35;;;7.72;;
30307;SDS011;17114;52.314;8.910;2023-11-19T13:15:45;41.95;;;7.88;;
30307;SDS011;17114;52.314;8.910;2023-11-19T13:18:12;42.33;;;7.28;;
30307;SDS011;17114;52.314;8.910;2023-11-19T13:20:42;37.58;;;7.50;;
30307;SDS011;17114;52.314;8.910;2023-11-19T13:23:09;60.80;;;7.43;;
30307;SDS011;17114;52.314;8.910;2023-11-19T13:25:36;41.70;;;6.63;;
30307;SDS011;17114;52.314;8.910;2023-11-19T13:28:03;44.38;;;6.80;;
30307;SDS011;17114;52.314;8.910;2023-11-19T13:30:32;38.30;;;7.13;;
30307;SDS011;17114;52.314;8.910;2023-11-19T13:32:59;38.67;;;7.05;;
30307;SDS011;17114;52.314;8.910;2023-11-19T13:35:27;37.70;;;6.88;;
30307;SDS011;17114;52.314;8.910;2023-11-19T13:37:54;48.78;;;7.35;;
30307;SDS011;17114;52.314;8.910;2023-11-19T13:40:21;36.03;;;6.07;;
30307;SDS011;17114;52.314;8.910;2023-11-19T13:42:50;40.13;;;6.93;;
30307;SDS011;17114;52.314;8.910;2023-11-19T13:45:17;41.00;;;6.80;;
30307;SDS011;17114;52.314;8.910;2023-11-19T13:47:46;43.35;;;7.90;;
30307;SDS011;17114;52.314;8.910;2023-11-19T13:50:14;35.53;;;5.45;;
30307;SDS011;17114;52.314;8.910;2023-11-19T13:52:43;38.53;;;6.75;;
30307;SDS011;17114;52.314;8.910;2023-11-19T13:55:14;29.63;;;6.25;;
30307;SDS011;17114;52.314;8.910;2023-11-19T13:57:41;32.67;;;6.25;;
30307;SDS011;17114;52.314;8.910;2023-11-19T14:00:10;35.15;;;6.43;;
30307;SDS011;17114;52.314;8.910;2023-11-19T14:02:43;32.15;;;6.47;;
30307;SDS011;17114;52.314;8.910;2023-11-19T14:05:10;35.60;;;6.28;;
30307;SDS011;17114;52.314;8.910;2023-11-19T14:07:37;41.20;;;6.88;;
30307;SDS011;17114;52.314;8.910;2023-11-19T14:10:08;30.52;;;5.65;;
30307;SDS011;17114;52.314;8.910;2023-11-19T14:12:36;31.67;;;6.60;;
30307;SDS011;17114;52.314;8.910;2023-11-19T14:15:04;35.40;;;5.72;;
30307;SDS011;17114;52.314;8.910;2023-11-19T14:17:33;35.65;;;6.20;;
30307;SDS011;17114;52.314;8.910;2023-11-19T14:20:00;29.95;;;5.43;;
30307;SDS011;17114;52.314;8.910;2023-11-19T14:22:28;36.17;;;6.55;;
30307;SDS011;17114;52.314;8.910;2023-11-19T14:24:56;39.92;;;6.50;;
30307;SDS011;17114;52.314;8.910;2023-11-19T14:27:23;33.17;;;5.82;;
30307;SDS011;17114;52.314;8.910;2023-11-19T14:29:50;38.42;;;6.35;;
30307;SDS011;17114;52.314;8.910;2023-11-19T14:32:18;29.80;;;5.70;;
30307;SDS011;17114;52.314;8.910;2023-11-19T14:34:45;34.30;;;5.90;;
30307;SDS011;17114;52.314;8.910;2023-11-19T14:37:11;38.83;;;5.78;;
30307;SDS011;17114;52.314;8.910;2023-11-19T14:39:38;37.08;;;6.57;;
30307;SDS011;17114;52.314;8.910;2023-11-19T14:42:05;42.03;;;7.15;;
30307;SDS011;17114;52.314;8.910;2023-11-19T14:44:32;38.53;;;6.75;;
30307;SDS011;17114;52.314;8.910;2023-11-19T14:47:00;38.45;;;7.45;;
30307;SDS011;17114;52.314;8.910;2023-11-19T14:49:28;33.35;;;6.30;;
30307;SDS011;17114;52.314;8.910;2023-11-19T14:51:55;30.83;;;6.10;;
30307;SDS011;17114;52.314;8.910;2023-11-19T14:54:41;34.90;;;5.22;;
30307;SDS011;17114;52.314;8.910;2023-11-19T14:57:08;33.20;;;6.22;;
30307;SDS011;17114;52.314;8.910;2023-11-19T14:59:36;43.22;;;6.28;;
30307;SDS011;17114;52.314;8.910;2023-11-19T15:02:06;34.75;;;7.05;;
30307;SDS011;17114;52.314;8.910;2023-11-19T15:04:33;36.55;;;6.95;;